createdAt,value
2017-07-18T00:00:27.921Z,12.85
2017-07-18T00:02:56.824Z,13.70
2017-07-18T00:05:25.730Z,12.35
2017-07-18T00:07:55.373Z,11.35
2017-07-18T00:10:24.266Z,16.12
2017-07-18T00:12:53.168Z,11.90
2017-07-18T00:15:22.034Z,13.18
2017-07-18T00:17:50.929Z,15.38
2017-07-18T00:20:19.790Z,12.27
2017-07-18T00:22:48.696Z,12.63
2017-07-18T00:25:18.366Z,14.38
2017-07-18T00:27:47.265Z,12.10
2017-07-18T00:30:16.170Z,13.48
2017-07-18T00:32:45.078Z,17.42
2017-07-18T00:35:14.741Z,15.63
2017-07-18T00:37:43.666Z,19.83
2017-07-18T00:40:12.575Z,14.52
2017-07-18T00:42:42.263Z,19.85
2017-07-18T00:45:11.169Z,17.27
2017-07-18T00:47:40.073Z,21.58
2017-07-18T00:50:09.736Z,17.25
2017-07-18T00:52:38.646Z,17.00
2017-07-18T00:55:07.554Z,17.80
2017-07-18T00:57:36.419Z,20.40
2017-07-18T01:00:05.313Z,21.52
2017-07-18T01:02:34.224Z,19.58
2017-07-18T01:05:03.116Z,16.85
2017-07-18T01:07:32.023Z,18.90
2017-07-18T01:10:01.714Z,17.67
2017-07-18T01:12:30.590Z,19.58
2017-07-18T01:14:59.503Z,16.75
2017-07-18T01:17:28.373Z,16.40
2017-07-18T01:19:57.250Z,19.42
2017-07-18T01:22:26.139Z,16.83
2017-07-18T01:24:55.026Z,15.45
2017-07-18T01:27:23.924Z,15.93
2017-07-18T01:29:52.830Z,19.40
2017-07-18T01:32:21.735Z,21.00
2017-07-18T01:34:50.645Z,18.00
2017-07-18T01:37:20.333Z,19.95
2017-07-18T01:39:49.254Z,16.80
2017-07-18T01:42:18.884Z,13.73
2017-07-18T01:44:47.794Z,14.95
2017-07-18T01:47:16.705Z,15.70
2017-07-18T01:49:45.619Z,15.38
2017-07-18T01:52:14.500Z,17.27
2017-07-18T01:54:43.405Z,15.73
2017-07-18T01:57:12.305Z,16.42
2017-07-18T01:59:41.201Z,13.98
2017-07-18T02:02:10.196Z,17.77
2017-07-18T02:04:39.862Z,15.02
2017-07-18T02:07:08.726Z,16.77
2017-07-18T02:09:37.646Z,16.15
2017-07-18T02:12:06.580Z,13.68
2017-07-18T02:14:36.241Z,17.30
2017-07-18T02:17:05.134Z,12.70
2017-07-18T02:19:34.032Z,13.80
2017-07-18T02:22:02.930Z,13.40
2017-07-18T02:24:31.826Z,15.13
2017-07-18T02:27:00.741Z,12.37
2017-07-18T02:29:29.613Z,12.25
2017-07-18T02:31:58.523Z,13.50
2017-07-18T02:34:27.414Z,15.65
2017-07-18T02:36:56.307Z,16.12
2017-07-18T02:39:25.214Z,17.55
2017-07-18T02:41:54.850Z,17.73
2017-07-18T02:44:23.765Z,11.98
2017-07-18T02:46:52.671Z,16.92
2017-07-18T02:49:21.576Z,13.60
2017-07-18T02:51:50.478Z,15.38
2017-07-18T02:54:19.392Z,14.75
2017-07-18T02:56:48.311Z,11.38
2017-07-18T02:59:17.215Z,13.52
2017-07-18T03:01:46.080Z,12.13
2017-07-18T03:04:14.981Z,12.30
2017-07-18T03:06:43.887Z,13.65
2017-07-18T03:09:12.776Z,15.70
2017-07-18T03:11:41.672Z,12.13
2017-07-18T03:14:10.571Z,14.63
2017-07-18T03:16:39.488Z,19.37
2017-07-18T03:19:08.407Z,17.02
2017-07-18T03:21:38.047Z,15.23
2017-07-18T03:24:06.250Z,20.10
2017-07-18T03:26:35.143Z,14.30
2017-07-18T03:29:04.044Z,14.90
2017-07-18T03:31:32.949Z,14.95
2017-07-18T03:34:01.846Z,24.42
2017-07-18T03:36:30.750Z,17.58
2017-07-18T03:39:00.434Z,14.23
2017-07-18T03:41:29.328Z,16.90
2017-07-18T03:43:58.231Z,18.35
2017-07-18T03:46:27.110Z,19.08
2017-07-18T03:48:55.657Z,17.12
2017-07-18T03:51:24.528Z,17.20
2017-07-18T03:53:54.187Z,26.20
2017-07-18T03:56:23.091Z,20.52
2017-07-18T03:58:52.003Z,15.90
2017-07-18T04:01:21.692Z,21.10
2017-07-18T04:03:50.560Z,18.45
2017-07-18T04:06:19.428Z,19.77
2017-07-18T04:08:48.640Z,15.13
2017-07-18T04:11:17.550Z,20.48
2017-07-18T04:13:46.449Z,18.33
2017-07-18T04:16:15.316Z,17.05
2017-07-18T04:18:44.225Z,17.87
2017-07-18T04:21:13.135Z,17.77
2017-07-18T04:23:42.044Z,22.85
2017-07-18T04:26:11.740Z,19.58
2017-07-18T04:28:40.623Z,18.60
2017-07-18T04:31:09.480Z,24.75
2017-07-18T04:33:38.387Z,25.92
2017-07-18T04:36:07.286Z,19.33
2017-07-18T04:38:36.186Z,16.75
2017-07-18T04:41:05.077Z,20.33
2017-07-18T04:43:33.973Z,19.85
2017-07-18T04:46:02.833Z,20.48
2017-07-18T04:48:31.763Z,21.23
2017-07-18T04:51:00.666Z,17.75
2017-07-18T04:53:30.329Z,17.77
2017-07-18T04:55:59.234Z,19.35
2017-07-18T04:58:28.108Z,18.62
2017-07-18T05:00:57.009Z,21.00
2017-07-18T05:03:25.921Z,18.92
2017-07-18T05:05:54.794Z,18.15
2017-07-18T05:08:23.705Z,18.27
2017-07-18T05:10:52.602Z,19.33
2017-07-18T05:13:21.514Z,19.90
2017-07-18T05:15:51.142Z,16.00
2017-07-18T05:18:20.051Z,17.30
2017-07-18T05:20:48.962Z,20.48
2017-07-18T05:23:17.873Z,19.87
2017-07-18T05:25:46.773Z,17.95
2017-07-18T05:28:15.675Z,20.62
2017-07-18T05:30:44.569Z,18.58
2017-07-18T05:33:14.204Z,17.25
2017-07-18T05:35:43.102Z,18.60
2017-07-18T05:38:11.988Z,21.05
2017-07-18T05:40:40.893Z,21.98
2017-07-18T05:43:09.785Z,20.60
2017-07-18T05:45:38.685Z,17.40
2017-07-18T05:48:07.584Z,19.48
2017-07-18T05:50:36.474Z,22.98
2017-07-18T05:53:05.404Z,17.98
2017-07-18T05:55:34.297Z,26.58
2017-07-18T05:58:03.198Z,20.60
2017-07-18T06:00:32.107Z,22.25
2017-07-18T06:03:01.010Z,21.00
2017-07-18T06:05:29.901Z,20.08
2017-07-18T06:07:58.797Z,21.98
2017-07-18T06:10:27.694Z,19.37
2017-07-18T06:12:56.555Z,18.17
2017-07-18T06:15:26.229Z,17.30
2017-07-18T06:17:55.131Z,18.37
2017-07-18T06:20:24.044Z,17.77
2017-07-18T06:22:53.710Z,19.40
2017-07-18T06:25:22.564Z,20.83
2017-07-18T06:27:51.464Z,17.67
2017-07-18T06:30:20.373Z,18.73
2017-07-18T06:32:49.284Z,17.08
2017-07-18T06:35:18.179Z,18.83
2017-07-18T06:37:47.091Z,18.27
2017-07-18T06:40:15.999Z,16.50
2017-07-18T06:42:45.667Z,17.33
2017-07-18T06:45:14.584Z,21.08
2017-07-18T06:47:43.490Z,16.33
2017-07-18T06:50:13.155Z,16.95
2017-07-18T06:52:42.034Z,21.02
2017-07-18T06:55:10.900Z,16.80
2017-07-18T06:57:39.769Z,15.57
2017-07-18T07:00:08.679Z,16.83
2017-07-18T07:02:37.591Z,16.02
2017-07-18T07:05:06.470Z,16.60
2017-07-18T07:07:35.422Z,14.18
2017-07-18T07:10:04.298Z,20.83
2017-07-18T07:12:33.209Z,15.63
2017-07-18T07:15:03.073Z,13.20
2017-07-18T07:17:31.973Z,11.70
2017-07-18T07:20:00.883Z,13.62
2017-07-18T07:22:29.802Z,11.98
2017-07-18T07:24:58.664Z,13.73
2017-07-18T07:27:27.577Z,14.23
2017-07-18T07:29:56.485Z,15.60
2017-07-18T07:32:25.390Z,16.35
2017-07-18T07:34:54.289Z,14.98
2017-07-18T07:37:23.185Z,10.73
2017-07-18T07:39:52.101Z,17.20
2017-07-18T07:42:21.015Z,13.57
2017-07-18T07:44:49.931Z,12.25
2017-07-18T07:47:18.809Z,9.40
2017-07-18T07:49:47.710Z,11.90
2017-07-18T07:52:16.575Z,20.50
2017-07-18T07:54:45.465Z,11.20
2017-07-18T07:57:14.341Z,9.95
2017-07-18T07:59:43.224Z,8.23
2017-07-18T08:02:12.123Z,13.55
2017-07-18T08:04:40.971Z,8.90
2017-07-18T08:07:09.874Z,14.57
2017-07-18T08:09:39.542Z,11.90
2017-07-18T08:12:08.448Z,11.15
2017-07-18T08:14:37.351Z,8.65
2017-07-18T08:17:06.268Z,12.88
2017-07-18T08:19:35.916Z,11.38
2017-07-18T08:22:04.796Z,11.55
2017-07-18T08:24:33.691Z,7.35
2017-07-18T08:27:02.549Z,7.12
2017-07-18T08:29:31.425Z,6.03
2017-07-18T08:32:00.308Z,7.07
2017-07-18T08:34:29.176Z,14.20
2017-07-18T08:36:58.015Z,5.75
2017-07-18T08:39:27.658Z,9.82
2017-07-18T08:41:56.501Z,7.40
2017-07-18T08:44:25.394Z,9.93
2017-07-18T08:46:54.282Z,7.47
2017-07-18T08:49:23.191Z,11.00
2017-07-18T08:51:52.850Z,10.48
2017-07-18T08:54:21.728Z,7.72
2017-07-18T08:56:50.626Z,10.05
2017-07-18T08:59:19.508Z,7.00
2017-07-18T09:01:48.363Z,8.02
2017-07-18T09:04:17.271Z,7.90
2017-07-18T09:06:46.153Z,5.90
2017-07-18T09:09:15.807Z,9.05
2017-07-18T09:11:44.743Z,9.45
2017-07-18T09:14:13.641Z,4.80
2017-07-18T09:16:43.325Z,5.72
2017-07-18T09:19:12.667Z,5.68
2017-07-18T09:21:43.014Z,7.28
2017-07-18T09:24:11.910Z,6.00
2017-07-18T09:26:40.801Z,10.38
2017-07-18T09:29:09.648Z,5.43
2017-07-18T09:31:39.310Z,7.45
2017-07-18T09:34:08.205Z,6.65
2017-07-18T09:36:37.082Z,5.28
2017-07-18T09:39:05.617Z,4.87
2017-07-18T09:41:34.516Z,6.78
2017-07-18T09:44:03.393Z,6.95
2017-07-18T09:46:32.289Z,10.10
2017-07-18T09:49:01.173Z,6.32
2017-07-18T09:51:30.035Z,10.52
2017-07-18T09:53:58.888Z,5.25
2017-07-18T09:56:27.766Z,5.32
2017-07-18T09:58:57.415Z,4.95
2017-07-18T10:01:26.315Z,11.60
2017-07-18T10:03:55.302Z,5.72
2017-07-18T10:06:24.191Z,6.72
2017-07-18T10:08:53.063Z,7.93
2017-07-18T10:11:21.955Z,4.20
2017-07-18T10:13:50.814Z,7.10
2017-07-18T10:16:19.697Z,4.97
2017-07-18T10:18:48.594Z,5.43
2017-07-18T10:21:17.453Z,9.82
2017-07-18T10:23:46.340Z,5.93
2017-07-18T10:26:15.219Z,5.20
2017-07-18T10:28:44.093Z,4.70
2017-07-18T10:31:13.732Z,5.85
2017-07-18T10:33:42.607Z,5.80
2017-07-18T10:36:11.235Z,5.80
2017-07-18T10:38:39.870Z,10.77
2017-07-18T10:41:08.489Z,4.70
2017-07-18T10:43:37.879Z,7.43
2017-07-18T10:46:06.497Z,5.13
2017-07-18T10:48:35.633Z,5.80
2017-07-18T10:51:04.274Z,4.07
2017-07-18T10:53:32.903Z,5.90
2017-07-18T10:56:01.516Z,7.40
2017-07-18T10:58:30.133Z,9.20
2017-07-18T11:00:58.776Z,8.40
2017-07-18T11:03:27.400Z,5.03
2017-07-18T11:05:55.990Z,5.93
2017-07-18T11:08:24.621Z,4.20
2017-07-18T11:10:53.248Z,6.00
2017-07-18T11:13:22.636Z,4.90
2017-07-18T11:15:51.251Z,6.40
2017-07-18T11:18:19.884Z,4.47
2017-07-18T11:20:48.505Z,4.30
2017-07-18T11:23:18.068Z,4.10
2017-07-18T11:25:46.700Z,5.60
2017-07-18T11:28:15.318Z,5.03
2017-07-18T11:30:43.952Z,5.80
2017-07-18T11:33:12.571Z,4.20
2017-07-18T11:35:41.201Z,5.40
2017-07-18T11:38:09.833Z,4.37
2017-07-18T11:40:39.238Z,5.60
2017-07-18T11:43:08.592Z,4.30
2017-07-18T11:45:37.231Z,6.73
2017-07-18T11:48:05.854Z,4.07
2017-07-18T11:50:34.471Z,6.80
2017-07-18T11:53:03.082Z,4.40
2017-07-18T11:55:31.701Z,5.23
2017-07-18T11:58:00.315Z,4.53
2017-07-18T12:00:28.904Z,8.40
2017-07-18T12:02:57.501Z,5.00
2017-07-18T12:05:26.108Z,4.40
2017-07-18T12:07:55.473Z,4.00
2017-07-18T12:10:24.103Z,4.47
2017-07-18T12:12:52.732Z,5.63
2017-07-18T12:15:21.357Z,5.90
2017-07-18T12:17:50.758Z,7.83
2017-07-18T12:20:20.146Z,6.90
2017-07-18T12:22:48.771Z,4.50
2017-07-18T12:25:17.399Z,5.80
2017-07-18T12:27:46.030Z,4.83
2017-07-18T12:30:14.658Z,4.97
2017-07-18T12:32:43.278Z,4.27
2017-07-18T12:35:11.911Z,4.50
2017-07-18T12:37:40.528Z,4.80
2017-07-18T12:40:09.158Z,4.60
2017-07-18T12:42:37.786Z,5.17
2017-07-18T12:45:06.418Z,7.27
2017-07-18T12:47:35.805Z,4.53
2017-07-18T12:50:04.417Z,4.67
2017-07-18T12:52:33.038Z,8.40
2017-07-18T12:55:01.657Z,5.70
2017-07-18T12:57:30.284Z,7.17
2017-07-18T12:59:58.921Z,4.20
2017-07-18T13:02:27.512Z,4.37
2017-07-18T13:04:56.099Z,6.63
2017-07-18T13:07:24.719Z,4.50
2017-07-18T13:09:53.338Z,8.17
2017-07-18T13:12:21.975Z,4.53
2017-07-18T13:14:51.349Z,4.20
2017-07-18T13:17:19.965Z,7.53
2017-07-18T13:19:48.581Z,6.20
2017-07-18T13:22:17.215Z,4.30
2017-07-18T13:24:45.847Z,4.90
2017-07-18T13:27:14.461Z,5.37
2017-07-18T13:29:43.085Z,9.07
2017-07-18T13:32:11.707Z,5.70
2017-07-18T13:34:40.319Z,5.57
2017-07-18T13:37:08.919Z,5.13
2017-07-18T13:39:37.536Z,11.70
2017-07-18T13:42:06.187Z,6.87
2017-07-18T13:44:34.804Z,5.20
2017-07-18T13:47:03.425Z,4.70
2017-07-18T13:49:32.004Z,4.10
2017-07-18T13:52:00.622Z,4.87
2017-07-18T13:54:29.241Z,5.57
2017-07-18T13:56:58.630Z,4.97
2017-07-18T13:59:27.245Z,6.17
2017-07-18T14:01:56.791Z,6.20
2017-07-18T14:04:25.425Z,5.07
2017-07-18T14:06:54.036Z,6.97
2017-07-18T14:09:22.667Z,4.97
2017-07-18T14:11:51.299Z,11.23
2017-07-18T14:14:19.916Z,8.73
2017-07-18T14:16:48.533Z,9.63
2017-07-18T14:19:17.161Z,4.47
2017-07-18T14:21:45.748Z,4.47
2017-07-18T14:24:14.371Z,5.17
2017-07-18T14:26:43.004Z,6.80
2017-07-18T14:29:11.625Z,6.30
2017-07-18T14:31:40.246Z,5.50
2017-07-18T14:34:08.873Z,4.30
2017-07-18T14:36:37.503Z,4.33
2017-07-18T14:39:06.135Z,5.80
2017-07-18T14:41:34.757Z,5.90
2017-07-18T14:44:03.373Z,4.27
2017-07-18T14:46:31.989Z,5.30
2017-07-18T14:49:00.613Z,7.63
2017-07-18T14:51:29.230Z,5.10
2017-07-18T14:53:57.841Z,4.60
2017-07-18T14:56:26.461Z,6.80
2017-07-18T14:58:55.091Z,10.00
2017-07-18T15:01:23.713Z,5.90
2017-07-18T15:03:52.355Z,3.77
2017-07-18T15:06:21.002Z,4.27
2017-07-18T15:08:49.612Z,4.57
2017-07-18T15:11:18.245Z,5.10
2017-07-18T15:13:46.852Z,5.40
2017-07-18T15:16:15.486Z,8.07
2017-07-18T15:18:44.105Z,4.33
2017-07-18T15:21:12.736Z,6.73
2017-07-18T15:23:41.363Z,7.33
2017-07-18T15:26:09.992Z,4.97
2017-07-18T15:28:38.610Z,5.30
2017-07-18T15:31:07.224Z,4.40
2017-07-18T15:33:35.847Z,4.83
2017-07-18T15:36:04.460Z,4.27
2017-07-18T15:38:33.072Z,6.33
2017-07-18T15:41:01.694Z,6.80
2017-07-18T15:43:30.317Z,6.13
2017-07-18T15:45:58.929Z,4.90
2017-07-18T15:48:27.563Z,6.20
2017-07-18T15:50:56.181Z,6.07
2017-07-18T15:53:24.806Z,6.43
2017-07-18T15:55:53.439Z,5.13
2017-07-18T15:58:22.067Z,6.57
2017-07-18T16:00:50.703Z,6.47
2017-07-18T16:03:19.343Z,4.70
2017-07-18T16:05:47.939Z,5.20
2017-07-18T16:08:16.575Z,5.20
2017-07-18T16:10:45.206Z,6.57
2017-07-18T16:13:13.810Z,5.00
2017-07-18T16:15:42.447Z,4.60
2017-07-18T16:18:11.846Z,7.17
2017-07-18T16:20:40.472Z,5.53
2017-07-18T16:23:09.092Z,9.80
2017-07-18T16:25:37.712Z,4.77
2017-07-18T16:28:06.328Z,5.10
2017-07-18T16:30:34.925Z,5.83
2017-07-18T16:33:03.562Z,5.57
2017-07-18T16:35:32.200Z,6.47
2017-07-18T16:38:00.833Z,5.67
2017-07-18T16:40:30.238Z,8.60
2017-07-18T16:42:59.616Z,5.63
2017-07-18T16:45:28.506Z,5.80
2017-07-18T16:47:57.617Z,5.27
2017-07-18T16:50:26.249Z,5.80
2017-07-18T16:52:54.910Z,6.20
2017-07-18T16:55:23.510Z,5.23
2017-07-18T16:57:52.147Z,6.20
2017-07-18T17:00:21.439Z,5.90
2017-07-18T17:02:50.032Z,9.93
2017-07-18T17:05:18.632Z,8.40
2017-07-18T17:07:47.264Z,5.00
2017-07-18T17:10:15.853Z,10.10
2017-07-18T17:12:44.486Z,5.77
2017-07-18T17:15:13.106Z,8.27
2017-07-18T17:17:41.740Z,4.83
2017-07-18T17:20:10.365Z,4.67
2017-07-18T17:22:38.965Z,10.70
2017-07-18T17:25:07.549Z,6.30
2017-07-18T17:27:36.156Z,7.20
2017-07-18T17:30:04.424Z,5.50
2017-07-18T17:32:33.046Z,8.30
2017-07-18T17:35:01.679Z,6.33
2017-07-18T17:37:30.300Z,5.77
2017-07-18T17:39:58.908Z,5.83
2017-07-18T17:42:27.548Z,7.73
2017-07-18T17:44:56.169Z,5.97
2017-07-18T17:47:27.024Z,5.37
2017-07-18T17:49:57.180Z,6.43
2017-07-18T17:52:26.901Z,5.13
2017-07-18T17:54:55.529Z,4.97
2017-07-18T17:57:24.150Z,6.53
2017-07-18T17:59:53.556Z,5.73
2017-07-18T18:02:22.165Z,6.20
2017-07-18T18:04:50.783Z,8.97
2017-07-18T18:07:19.421Z,6.43
2017-07-18T18:09:48.034Z,5.33
2017-07-18T18:12:16.635Z,11.17
2017-07-18T18:14:45.224Z,8.67
2017-07-18T18:17:13.846Z,6.50
2017-07-18T18:19:43.204Z,5.50
2017-07-18T18:22:11.828Z,7.47
2017-07-18T18:24:41.206Z,6.33
2017-07-18T18:27:09.824Z,6.13
2017-07-18T18:29:39.221Z,7.20
2017-07-18T18:32:08.570Z,5.73
2017-07-18T18:34:37.188Z,9.60
2017-07-18T18:37:05.803Z,6.20
2017-07-18T18:39:34.437Z,11.00
2017-07-18T18:42:04.078Z,6.20
2017-07-18T18:44:32.687Z,9.20
2017-07-18T18:47:01.310Z,7.30
2017-07-18T18:49:29.893Z,6.80
2017-07-18T18:51:58.527Z,5.87
2017-07-18T18:54:27.886Z,6.80
2017-07-18T18:56:56.514Z,7.13
2017-07-18T18:59:25.417Z,7.37
2017-07-18T19:01:54.862Z,5.20
2017-07-18T19:04:23.506Z,8.20
2017-07-18T19:06:52.399Z,6.43
2017-07-18T19:09:21.056Z,6.30
2017-07-18T19:11:49.939Z,6.57
2017-07-18T19:14:18.826Z,9.98
2017-07-18T19:16:47.722Z,7.60
2017-07-18T19:19:16.601Z,6.35
2017-07-18T19:21:45.489Z,5.90
2017-07-18T19:24:14.376Z,11.68
2017-07-18T19:29:22.103Z,5.82
2017-07-18T19:31:51.005Z,8.40
2017-07-18T19:34:19.896Z,6.10
2017-07-18T19:36:48.788Z,9.60
2017-07-18T19:39:17.665Z,7.25
2017-07-18T19:41:47.715Z,12.63
2017-07-18T19:44:16.693Z,5.93
2017-07-18T19:46:45.828Z,6.55
2017-07-18T19:49:14.726Z,10.38
2017-07-18T19:51:43.643Z,5.90
2017-07-18T19:54:13.335Z,7.60
2017-07-18T19:56:42.216Z,6.15
2017-07-18T19:59:11.114Z,9.43
2017-07-18T20:01:39.999Z,7.20
2017-07-18T20:04:08.884Z,6.55
2017-07-18T20:06:37.778Z,8.98
2017-07-18T20:09:06.771Z,8.20
2017-07-18T20:11:35.730Z,7.25
2017-07-18T20:14:04.614Z,6.62
2017-07-18T20:16:33.507Z,7.25
2017-07-18T20:19:02.405Z,8.68
2017-07-18T20:21:31.284Z,6.55
2017-07-18T20:24:00.143Z,6.93
2017-07-18T20:26:29.041Z,10.02
2017-07-18T20:28:57.924Z,8.20
2017-07-18T20:31:26.804Z,8.68
2017-07-18T20:33:55.693Z,7.57
2017-07-18T20:36:24.589Z,11.50
2017-07-18T20:38:53.487Z,11.48
2017-07-18T20:41:41.229Z,7.82
2017-07-18T20:44:26.302Z,8.63
2017-07-18T20:52:23.492Z,8.35
2017-07-18T20:54:52.827Z,6.80
2017-07-18T20:57:21.737Z,17.45
2017-07-18T20:59:50.638Z,9.05
2017-07-18T21:02:19.565Z,10.10
2017-07-18T21:05:07.952Z,9.50
2017-07-18T21:07:36.860Z,10.90
2017-07-18T21:10:05.753Z,6.78
2017-07-18T21:12:34.655Z,7.97
2017-07-18T21:15:04.231Z,9.95
2017-07-18T21:17:33.118Z,7.65
2017-07-18T21:20:02.785Z,9.82
2017-07-18T21:22:31.672Z,8.75
2017-07-18T21:25:00.543Z,9.35
2017-07-18T21:27:29.437Z,9.07
2017-07-18T21:29:58.337Z,6.78
2017-07-18T21:32:27.882Z,7.65
2017-07-18T21:34:57.541Z,8.82
2017-07-18T21:37:26.421Z,6.82
2017-07-18T21:39:55.309Z,13.00
2017-07-18T21:42:24.247Z,7.70
2017-07-18T21:45:23.474Z,12.00
2017-07-18T21:51:25.671Z,8.00
2017-07-18T22:02:59.264Z,8.57
2017-07-18T22:05:28.157Z,9.95
2017-07-18T22:07:57.043Z,9.52
2017-07-18T22:10:25.891Z,6.65
2017-07-18T22:12:54.795Z,11.55
2017-07-18T22:15:23.677Z,9.52
2017-07-18T22:17:54.267Z,11.60
2017-07-18T22:23:16.068Z,7.50
2017-07-18T22:25:45.717Z,9.30
2017-07-18T22:28:14.630Z,10.82
2017-07-18T22:30:43.539Z,7.37
2017-07-18T22:33:13.431Z,10.07
2017-07-18T22:35:42.287Z,6.70
2017-07-18T22:38:11.501Z,12.13
2017-07-18T22:40:40.390Z,9.85
2017-07-18T22:43:09.264Z,9.43
2017-07-18T22:45:38.908Z,9.55
2017-07-18T22:48:07.105Z,10.85
2017-07-18T22:50:36.606Z,7.60
2017-07-18T22:53:05.510Z,9.18
2017-07-18T22:55:34.420Z,9.88
2017-07-18T22:58:03.659Z,9.18
2017-07-18T23:00:32.552Z,10.23
2017-07-18T23:03:01.406Z,8.15
2017-07-18T23:05:31.121Z,14.73
2017-07-18T23:08:00.782Z,8.85
2017-07-18T23:10:29.682Z,9.00
2017-07-18T23:12:58.567Z,10.70
2017-07-18T23:15:27.466Z,9.88
2017-07-18T23:17:56.360Z,9.63
2017-07-18T23:20:25.266Z,10.93
2017-07-18T23:22:54.167Z,11.32
2017-07-18T23:25:23.045Z,9.70
2017-07-18T23:27:51.929Z,9.65
2017-07-18T23:30:20.836Z,10.55
2017-07-18T23:32:49.728Z,9.57
2017-07-18T23:35:18.621Z,9.77
2017-07-18T23:37:47.527Z,9.68
2017-07-18T23:40:17.197Z,10.48
2017-07-18T23:42:46.102Z,12.52
2017-07-18T23:45:16.961Z,13.30
2017-07-18T23:47:46.635Z,10.95
2017-07-18T23:50:15.547Z,10.70
2017-07-18T23:52:44.498Z,10.98
2017-07-18T23:55:13.393Z,10.10
2017-07-18T23:57:42.292Z,11.25
